Arnott, Wisconsin
Current Conditions -  °F | °C
As of 10:15 AM on Thursday 18 Dec 2014 (Local Time) from KSTE Reporting Station
Overcast Overcast  
Wind Chill: -9°   Ceiling: 1500
Heat Index: -5°   Visibility: 10mi
Dew Point: -8°   Wind: 6mph
Humidity: 81%   Direction: 60°ENE
Pressure: 30.29"   Gusts: NA
Location:  44.5531°N, 89.5186°W
Report Text: KSTE 181615Z AUTO 06005KT 10SM OVC015 M05/M08 A3029 RMK AO2 T10491077
Loading
Personal Weather Stations






























Interactive Weather Map New forecast layout! Learn more

10-Day Weather Forecast

Advertisements
Track Severe Weather on mobile